sensor_id;sensor_type;location;lat;lon;timestamp;pressure;altitude;pressure_sealevel;temperature
62611;BMP280;48683;48.084;17.272;2023-06-04T00:00:50;100532.91;;;14.40
62611;BMP280;48683;48.084;17.272;2023-06-04T00:03:15;100536.28;;;14.48
62611;BMP280;48683;48.084;17.272;2023-06-04T00:05:41;100520.09;;;14.48
62611;BMP280;48683;48.084;17.272;2023-06-04T00:08:06;100520.19;;;14.41
62611;BMP280;48683;48.084;17.272;2023-06-04T00:10:31;100517.94;;;14.36
62611;BMP280;48683;48.084;17.272;2023-06-04T00:12:58;100517.16;;;14.35
62611;BMP280;48683;48.084;17.272;2023-06-04T00:15:24;100517.13;;;14.39
62611;BMP280;48683;48.084;17.272;2023-06-04T00:17:49;100514.09;;;14.30
62611;BMP280;48683;48.084;17.272;2023-06-04T00:20:15;100510.84;;;14.11
62611;BMP280;48683;48.084;17.272;2023-06-04T00:22:40;100511.72;;;13.98
62611;BMP280;48683;48.084;17.272;2023-06-04T00:25:08;100519.13;;;13.90
62611;BMP280;48683;48.084;17.272;2023-06-04T00:27:33;100522.16;;;13.96
62611;BMP280;48683;48.084;17.272;2023-06-04T00:29:59;100522.56;;;13.94
62611;BMP280;48683;48.084;17.272;2023-06-04T00:32:24;100524.66;;;13.76
62611;BMP280;48683;48.084;17.272;2023-06-04T00:34:54;100528.97;;;13.66
62611;BMP280;48683;48.084;17.272;2023-06-04T00:37:21;100521.19;;;13.75
62611;BMP280;48683;48.084;17.272;2023-06-04T00:39:47;100530.06;;;13.76
62611;BMP280;48683;48.084;17.272;2023-06-04T00:42:12;100524.28;;;13.74
62611;BMP280;48683;48.084;17.272;2023-06-04T00:44:38;100514.78;;;13.55
62611;BMP280;48683;48.084;17.272;2023-06-04T00:47:12;100532.00;;;13.72
62611;BMP280;48683;48.084;17.272;2023-06-04T00:49:38;100528.09;;;13.80
62611;BMP280;48683;48.084;17.272;2023-06-04T00:52:04;100527.34;;;13.76
62611;BMP280;48683;48.084;17.272;2023-06-04T00:54:30;100532.38;;;13.74
62611;BMP280;48683;48.084;17.272;2023-06-04T00:56:57;100537.31;;;13.83
62611;BMP280;48683;48.084;17.272;2023-06-04T00:59:23;100536.53;;;13.82
62611;BMP280;48683;48.084;17.272;2023-06-04T01:04:36;100525.41;;;13.76
62611;BMP280;48683;48.084;17.272;2023-06-04T01:07:04;100528.81;;;13.84
62611;BMP280;48683;48.084;17.272;2023-06-04T01:09:29;100535.69;;;13.92
62611;BMP280;48683;48.084;17.272;2023-06-04T01:11:55;100536.03;;;13.94
62611;BMP280;48683;48.084;17.272;2023-06-04T01:14:24;100532.56;;;13.94
62611;BMP280;48683;48.084;17.272;2023-06-04T01:16:58;100521.19;;;13.75
62611;BMP280;48683;48.084;17.272;2023-06-04T01:25:36;100530.16;;;13.62
62611;BMP280;48683;48.084;17.272;2023-06-04T01:28:04;100525.19;;;13.57
62611;BMP280;48683;48.084;17.272;2023-06-04T01:30:33;100515.78;;;13.24
62611;BMP280;48683;48.084;17.272;2023-06-04T01:32:59;100531.50;;;13.36
62611;BMP280;48683;48.084;17.272;2023-06-04T01:35:26;100541.44;;;13.46
62611;BMP280;48683;48.084;17.272;2023-06-04T01:37:51;100540.53;;;13.63
62611;BMP280;48683;48.084;17.272;2023-06-04T01:40:17;100529.88;;;13.49
62611;BMP280;48683;48.084;17.272;2023-06-04T01:42:42;100542.50;;;13.59
62611;BMP280;48683;48.084;17.272;2023-06-04T01:45:08;100527.84;;;13.60
62611;BMP280;48683;48.084;17.272;2023-06-04T01:47:34;100552.66;;;13.93
62611;BMP280;48683;48.084;17.272;2023-06-04T01:50:05;100541.91;;;13.86
62611;BMP280;48683;48.084;17.272;2023-06-04T01:52:30;100541.13;;;13.89
62611;BMP280;48683;48.084;17.272;2023-06-04T01:54:56;100542.06;;;14.09
62611;BMP280;48683;48.084;17.272;2023-06-04T01:57:21;100539.44;;;14.02
62611;BMP280;48683;48.084;17.272;2023-06-04T01:59:47;100546.31;;;14.10
62611;BMP280;48683;48.084;17.272;2023-06-04T02:02:13;100550.63;;;14.04
62611;BMP280;48683;48.084;17.272;2023-06-04T02:04:39;100534.97;;;13.88
62611;BMP280;48683;48.084;17.272;2023-06-04T02:07:08;100550.25;;;14.02
62611;BMP280;48683;48.084;17.272;2023-06-04T02:09:33;100542.19;;;13.98
62611;BMP280;48683;48.084;17.272;2023-06-04T02:12:00;100544.53;;;13.96
62611;BMP280;48683;48.084;17.272;2023-06-04T02:14:25;100543.38;;;13.94
62611;BMP280;48683;48.084;17.272;2023-06-04T02:16:50;100554.94;;;13.94
62611;BMP280;48683;48.084;17.272;2023-06-04T02:19:16;100554.94;;;13.94
62611;BMP280;48683;48.084;17.272;2023-06-04T02:21:44;100555.31;;;13.96
62611;BMP280;48683;48.084;17.272;2023-06-04T02:24:09;100561.06;;;13.98
62611;BMP280;48683;48.084;17.272;2023-06-04T02:26:34;100559.50;;;14.04
62611;BMP280;48683;48.084;17.272;2023-06-04T02:29:00;100555.56;;;14.09
62611;BMP280;48683;48.084;17.272;2023-06-04T02:31:25;100561.75;;;14.09
62611;BMP280;48683;48.084;17.272;2023-06-04T02:33:50;100552.38;;;14.21
62611;BMP280;48683;48.084;17.272;2023-06-04T02:36:16;100550.09;;;14.19
62611;BMP280;48683;48.084;17.272;2023-06-04T02:38:42;100555.03;;;14.24
62611;BMP280;48683;48.084;17.272;2023-06-04T02:41:08;100553.06;;;14.28
62611;BMP280;48683;48.084;17.272;2023-06-04T02:43:33;100544.66;;;14.23
62611;BMP280;48683;48.084;17.272;2023-06-04T02:45:58;100551.19;;;14.25
62611;BMP280;48683;48.084;17.272;2023-06-04T02:48:24;100548.88;;;14.24
62611;BMP280;48683;48.084;17.272;2023-06-04T02:50:50;100543.91;;;14.19
62611;BMP280;48683;48.084;17.272;2023-06-04T02:53:15;100548.56;;;14.18
62611;BMP280;48683;48.084;17.272;2023-06-04T02:55:40;100555.19;;;14.10
62611;BMP280;48683;48.084;17.272;2023-06-04T02:58:07;100553.31;;;14.04
62611;BMP280;48683;48.084;17.272;2023-06-04T03:00:34;100564.09;;;14.07
62611;BMP280;48683;48.084;17.272;2023-06-04T03:02:59;100560.72;;;13.96
62611;BMP280;48683;48.084;17.272;2023-06-04T03:05:26;100566.41;;;14.05
62611;BMP280;48683;48.084;17.272;2023-06-04T03:07:52;100561.41;;;14.04
62611;BMP280;48683;48.084;17.272;2023-06-04T03:10:17;100560.63;;;14.07
62611;BMP280;48683;48.084;17.272;2023-06-04T03:12:42;100562.84;;;14.15
62611;BMP280;48683;48.084;17.272;2023-06-04T03:15:09;100566.31;;;14.16
62611;BMP280;48683;48.084;17.272;2023-06-04T03:17:35;100561.28;;;14.18
62611;BMP280;48683;48.084;17.272;2023-06-04T03:20:00;100574.63;;;14.32
62611;BMP280;48683;48.084;17.272;2023-06-04T03:22:25;100576.94;;;14.34
62611;BMP280;48683;48.084;17.272;2023-06-04T03:24:51;100580.75;;;14.43
62611;BMP280;48683;48.084;17.272;2023-06-04T03:27:17;100586.19;;;14.33
62611;BMP280;48683;48.084;17.272;2023-06-04T03:29:43;100589.66;;;14.33
62611;BMP280;48683;48.084;17.272;2023-06-04T03:32:08;100583.16;;;14.31
62611;BMP280;48683;48.084;17.272;2023-06-04T03:34:33;100575.81;;;14.35
62611;BMP280;48683;48.084;17.272;2023-06-04T03:36:59;100580.84;;;14.29
62611;BMP280;48683;48.084;17.272;2023-06-04T03:39:25;100591.25;;;14.31
62611;BMP280;48683;48.084;17.272;2023-06-04T03:41:51;100585.47;;;14.28
62611;BMP280;48683;48.084;17.272;2023-06-04T03:44:17;100581.69;;;14.22
62611;BMP280;48683;48.084;17.272;2023-06-04T03:46:43;100594.00;;;14.27
62611;BMP280;48683;48.084;17.272;2023-06-04T03:49:09;100589.41;;;14.20
62611;BMP280;48683;48.084;17.272;2023-06-04T03:51:35;100597.47;;;14.24
62611;BMP280;48683;48.084;17.272;2023-06-04T03:54:01;100593.59;;;14.25
62611;BMP280;48683;48.084;17.272;2023-06-04T03:56:27;100591.78;;;14.15
62611;BMP280;48683;48.084;17.272;2023-06-04T03:58:53;100593.28;;;14.19
62611;BMP280;48683;48.084;17.272;2023-06-04T04:01:18;100604.44;;;14.21
62611;BMP280;48683;48.084;17.272;2023-06-04T04:03:44;100601.66;;;14.28
62611;BMP280;48683;48.084;17.272;2023-06-04T04:06:13;100594.00;;;14.27
62611;BMP280;48683;48.084;17.272;2023-06-04T04:08:39;100598.59;;;14.30
62611;BMP280;48683;48.084;17.272;2023-06-04T04:11:10;100592.41;;;14.30
62611;BMP280;48683;48.084;17.272;2023-06-04T04:13:35;100607.03;;;14.39
62611;BMP280;48683;48.084;17.272;2023-06-04T04:16:01;100603.91;;;14.41
62611;BMP280;48683;48.084;17.272;2023-06-04T04:18:26;100602.66;;;14.49
62611;BMP280;48683;48.084;17.272;2023-06-04T04:20:51;100606.91;;;14.50
62611;BMP280;48683;48.084;17.272;2023-06-04T04:23:17;100604.50;;;14.55
62611;BMP280;48683;48.084;17.272;2023-06-04T04:25:43;100612.97;;;14.61
62611;BMP280;48683;48.084;17.272;2023-06-04T04:28:12;100623.41;;;14.59
62611;BMP280;48683;48.084;17.272;2023-06-04T04:30:37;100611.84;;;14.58
62611;BMP280;48683;48.084;17.272;2023-06-04T04:33:04;100618.44;;;14.54
62611;BMP280;48683;48.084;17.272;2023-06-04T04:35:33;100625.38;;;14.55
62611;BMP280;48683;48.084;17.272;2023-06-04T04:37:59;100619.25;;;14.51
62611;BMP280;48683;48.084;17.272;2023-06-04T04:40:28;100625.34;;;14.58
62611;BMP280;48683;48.084;17.272;2023-06-04T04:42:54;100620.75;;;14.52
62611;BMP280;48683;48.084;17.272;2023-06-04T04:45:19;100616.13;;;14.52
62611;BMP280;48683;48.084;17.272;2023-06-04T04:47:44;100626.53;;;14.54
62611;BMP280;48683;48.084;17.272;2023-06-04T04:50:10;100623.41;;;14.59
62611;BMP280;48683;48.084;17.272;2023-06-04T04:52:36;100627.16;;;14.68
62611;BMP280;48683;48.084;17.272;2023-06-04T04:55:01;100635.66;;;14.70
62611;BMP280;48683;48.084;17.272;2023-06-04T04:57:26;100632.88;;;14.78
62611;BMP280;48683;48.084;17.272;2023-06-04T04:59:52;100622.78;;;14.82
62611;BMP280;48683;48.084;17.272;2023-06-04T05:02:17;100631.28;;;14.80
62611;BMP280;48683;48.084;17.272;2023-06-04T05:04:43;100635.06;;;14.90
62611;BMP280;48683;48.084;17.272;2023-06-04T05:07:08;100633.13;;;14.87
62611;BMP280;48683;48.084;17.272;2023-06-04T05:09:33;100621.56;;;14.86
62611;BMP280;48683;48.084;17.272;2023-06-04T05:11:59;100629.09;;;15.02
62611;BMP280;48683;48.084;17.272;2023-06-04T05:14:24;100631.09;;;14.98
62611;BMP280;48683;48.084;17.272;2023-06-04T05:16:49;100622.56;;;14.99
62611;BMP280;48683;48.084;17.272;2023-06-04T05:19:15;100630.19;;;15.08
62611;BMP280;48683;48.084;17.272;2023-06-04T05:21:42;100631.00;;;15.05
62611;BMP280;48683;48.084;17.272;2023-06-04T05:24:09;100645.13;;;15.19
62611;BMP280;48683;48.084;17.272;2023-06-04T05:26:35;100636.59;;;15.21
62611;BMP280;48683;48.084;17.272;2023-06-04T05:29:00;100634.25;;;15.23
62611;BMP280;48683;48.084;17.272;2023-06-04T05:31:26;100639.97;;;15.29
62611;BMP280;48683;48.084;17.272;2023-06-04T05:33:52;100641.03;;;15.35
62611;BMP280;48683;48.084;17.272;2023-06-04T05:36:17;100644.13;;;15.37
62611;BMP280;48683;48.084;17.272;2023-06-04T05:38:43;100643.34;;;15.36
62611;BMP280;48683;48.084;17.272;2023-06-04T05:41:08;100651.81;;;15.38
62611;BMP280;48683;48.084;17.272;2023-06-04T05:43:33;100656.47;;;15.38
62611;BMP280;48683;48.084;17.272;2023-06-04T05:45:59;100644.63;;;15.28
62611;BMP280;48683;48.084;17.272;2023-06-04T05:48:25;100646.19;;;15.26
62611;BMP280;48683;48.084;17.272;2023-06-04T05:50:50;100640.47;;;15.20
62611;BMP280;48683;48.084;17.272;2023-06-04T05:53:15;100654.63;;;15.31
62611;BMP280;48683;48.084;17.272;2023-06-04T05:55:41;100649.22;;;15.31
62611;BMP280;48683;48.084;17.272;2023-06-04T05:58:07;100658.09;;;15.32
62611;BMP280;48683;48.084;17.272;2023-06-04T06:00:32;100641.25;;;15.20
62611;BMP280;48683;48.084;17.272;2023-06-04T06:02:57;100644.25;;;15.26
62611;BMP280;48683;48.084;17.272;2023-06-04T06:05:23;100638.94;;;15.19
62611;BMP280;48683;48.084;17.272;2023-06-04T06:07:48;100639.25;;;15.25
62611;BMP280;48683;48.084;17.272;2023-06-04T06:10:14;100647.66;;;15.30
62611;BMP280;48683;48.084;17.272;2023-06-04T06:12:40;100651.44;;;15.40
62611;BMP280;48683;48.084;17.272;2023-06-04T06:15:06;100655.25;;;15.42
62611;BMP280;48683;48.084;17.272;2023-06-04T06:17:32;100666.03;;;15.46
62611;BMP280;48683;48.084;17.272;2023-06-04T06:19:58;100660.59;;;15.49
62611;BMP280;48683;48.084;17.272;2023-06-04T06:22:23;100671.19;;;15.67
62611;BMP280;48683;48.084;17.272;2023-06-04T06:24:48;100681.13;;;15.74
62611;BMP280;48683;48.084;17.272;2023-06-04T06:27:14;100679.16;;;15.78
62611;BMP280;48683;48.084;17.272;2023-06-04T06:29:41;100679.16;;;15.78
62611;BMP280;48683;48.084;17.272;2023-06-04T06:32:07;100674.50;;;15.78
62611;BMP280;48683;48.084;17.272;2023-06-04T06:34:32;100685.28;;;15.82
62611;BMP280;48683;48.084;17.272;2023-06-04T06:36:58;100694.16;;;15.82
62611;BMP280;48683;48.084;17.272;2023-06-04T06:39:23;100686.19;;;15.72
62611;BMP280;48683;48.084;17.272;2023-06-04T06:41:49;100679.59;;;15.73
62611;BMP280;48683;48.084;17.272;2023-06-04T06:44:14;100681.28;;;15.63
62611;BMP280;48683;48.084;17.272;2023-06-04T06:46:40;100690.06;;;15.71
62611;BMP280;48683;48.084;17.272;2023-06-04T06:49:05;100690.47;;;15.69
62611;BMP280;48683;48.084;17.272;2023-06-04T06:51:31;100684.28;;;15.68
62611;BMP280;48683;48.084;17.272;2023-06-04T06:53:56;100681.13;;;15.74
62611;BMP280;48683;48.084;17.272;2023-06-04T06:56:22;100694.50;;;15.84
62611;BMP280;48683;48.084;17.272;2023-06-04T06:58:47;100682.50;;;15.85
62611;BMP280;48683;48.084;17.272;2023-06-04T07:01:13;100689.41;;;15.90
62611;BMP280;48683;48.084;17.272;2023-06-04T07:03:38;100690.19;;;15.90
62611;BMP280;48683;48.084;17.272;2023-06-04T07:06:05;100687.97;;;15.82
62611;BMP280;48683;48.084;17.272;2023-06-04T07:08:31;100688.81;;;15.79
62611;BMP280;48683;48.084;17.272;2023-06-04T07:10:56;100678.47;;;15.70
62611;BMP280;48683;48.084;17.272;2023-06-04T07:13:22;100686.09;;;15.79
62611;BMP280;48683;48.084;17.272;2023-06-04T07:15:47;100702.69;;;15.81
62611;BMP280;48683;48.084;17.272;2023-06-04T07:18:12;100693.84;;;15.77
62611;BMP280;48683;48.084;17.272;2023-06-04T07:20:38;100713.06;;;15.86
62611;BMP280;48683;48.084;17.272;2023-06-04T07:23:03;100703.06;;;15.83
62611;BMP280;48683;48.084;17.272;2023-06-04T07:25:29;100710.25;;;15.93
62611;BMP280;48683;48.084;17.272;2023-06-04T07:27:54;100706.38;;;15.94
62611;BMP280;48683;48.084;17.272;2023-06-04T07:30:23;100704.38;;;15.98
62611;BMP280;48683;48.084;17.272;2023-06-04T07:32:48;100714.00;;;16.02
62611;BMP280;48683;48.084;17.272;2023-06-04T07:35:14;100712.84;;;16.00
62611;BMP280;48683;48.084;17.272;2023-06-04T07:37:39;100703.22;;;15.95
62611;BMP280;48683;48.084;17.272;2023-06-04T07:40:05;100693.75;;;15.84
62611;BMP280;48683;48.084;17.272;2023-06-04T07:42:31;100697.47;;;15.93
62611;BMP280;48683;48.084;17.272;2023-06-04T07:44:56;100682.50;;;15.85
62611;BMP280;48683;48.084;17.272;2023-06-04T07:47:21;100711.94;;;16.10
62611;BMP280;48683;48.084;17.272;2023-06-04T07:49:47;100709.94;;;16.14
62611;BMP280;48683;48.084;17.272;2023-06-04T07:52:12;100712.22;;;16.15
62611;BMP280;48683;48.084;17.272;2023-06-04T07:54:38;100709.75;;;16.25
62611;BMP280;48683;48.084;17.272;2023-06-04T07:57:06;100701.03;;;16.13
62611;BMP280;48683;48.084;17.272;2023-06-04T07:59:31;100728.00;;;16.21
62611;BMP280;48683;48.084;17.272;2023-06-04T08:01:57;100729.84;;;16.27
62611;BMP280;48683;48.084;17.272;2023-06-04T08:04:22;100726.03;;;16.25
62611;BMP280;48683;48.084;17.272;2023-06-04T08:06:47;100729.91;;;16.24
62611;BMP280;48683;48.084;17.272;2023-06-04T08:09:14;100734.16;;;16.25
62611;BMP280;48683;48.084;17.272;2023-06-04T08:11:41;100727.50;;;16.29
62611;BMP280;48683;48.084;17.272;2023-06-04T08:14:13;100734.44;;;16.30
62611;BMP280;48683;48.084;17.272;2023-06-04T08:16:39;100745.13;;;16.41
62611;BMP280;48683;48.084;17.272;2023-06-04T08:19:05;100738.94;;;16.40
62611;BMP280;48683;48.084;17.272;2023-06-04T08:21:31;100746.69;;;16.38
62611;BMP280;48683;48.084;17.272;2023-06-04T08:23:57;100741.34;;;16.35
62611;BMP280;48683;48.084;17.272;2023-06-04T08:26:22;100734.28;;;16.41
62611;BMP280;48683;48.084;17.272;2023-06-04T08:28:48;100736.09;;;16.47
62611;BMP280;48683;48.084;17.272;2023-06-04T08:31:14;100720.22;;;16.49
62611;BMP280;48683;48.084;17.272;2023-06-04T08:33:40;100737.50;;;16.59
62611;BMP280;48683;48.084;17.272;2023-06-04T08:36:05;100735.47;;;16.63
62611;BMP280;48683;48.084;17.272;2023-06-04T08:38:31;100742.78;;;16.66
62611;BMP280;48683;48.084;17.272;2023-06-04T08:41:03;100750.38;;;16.75
62611;BMP280;48683;48.084;17.272;2023-06-04T08:43:32;100746.56;;;16.72
62611;BMP280;48683;48.084;17.272;2023-06-04T08:45:59;100747.84;;;16.87
62611;BMP280;48683;48.084;17.272;2023-06-04T08:48:28;100751.91;;;16.99
62611;BMP280;48683;48.084;17.272;2023-06-04T08:50:56;100754.41;;;17.09
62611;BMP280;48683;48.084;17.272;2023-06-04T08:53:22;100745.50;;;17.09
62611;BMP280;48683;48.084;17.272;2023-06-04T08:55:50;100742.66;;;17.16
62611;BMP280;48683;48.084;17.272;2023-06-04T08:58:16;100741.47;;;17.17
62611;BMP280;48683;48.084;17.272;2023-06-04T09:00:42;100753.72;;;17.25
62611;BMP280;48683;48.084;17.272;2023-06-04T09:03:07;100749.97;;;17.19
62611;BMP280;48683;48.084;17.272;2023-06-04T09:05:33;100751.91;;;17.19
62611;BMP280;48683;48.084;17.272;2023-06-04T09:08:00;100751.84;;;17.22
62611;BMP280;48683;48.084;17.272;2023-06-04T09:10:29;100759.63;;;17.20
62611;BMP280;48683;48.084;17.272;2023-06-04T09:12:57;100750.25;;;17.25
62611;BMP280;48683;48.084;17.272;2023-06-04T09:15:26;100756.84;;;17.24
62611;BMP280;48683;48.084;17.272;2023-06-04T09:17:51;100760.06;;;17.19
62611;BMP280;48683;48.084;17.272;2023-06-04T09:20:23;100758.19;;;17.16
62611;BMP280;48683;48.084;17.272;2023-06-04T09:22:49;100750.94;;;17.09
62611;BMP280;48683;48.084;17.272;2023-06-04T09:25:26;100754.34;;;17.13
62611;BMP280;48683;48.084;17.272;2023-06-04T09:27:52;100762.06;;;17.15
62611;BMP280;48683;48.084;17.272;2023-06-04T09:30:18;100755.94;;;17.11
62611;BMP280;48683;48.084;17.272;2023-06-04T09:32:44;100767.50;;;17.15
62611;BMP280;48683;48.084;17.272;2023-06-04T09:37:51;100761.59;;;17.20
62611;BMP280;48683;48.084;17.272;2023-06-04T09:40:17;100761.59;;;17.20
62611;BMP280;48683;48.084;17.272;2023-06-04T09:42:47;100758.19;;;17.16
62611;BMP280;48683;48.084;17.272;2023-06-04T09:45:35;100765.81;;;17.21
62611;BMP280;48683;48.084;17.272;2023-06-04T09:48:02;100762.78;;;17.19
62611;BMP280;48683;48.084;17.272;2023-06-04T09:50:30;100772.38;;;17.23
62611;BMP280;48683;48.084;17.272;2023-06-04T09:52:57;100765.41;;;17.22
62611;BMP280;48683;48.084;17.272;2023-06-04T09:55:22;100770.41;;;17.24
62611;BMP280;48683;48.084;17.272;2023-06-04T09:57:50;100770.16;;;17.18
62611;BMP280;48683;48.084;17.272;2023-06-04T10:00:24;100760.75;;;17.03
62611;BMP280;48683;48.084;17.272;2023-06-04T10:02:56;100765.03;;;17.00
62611;BMP280;48683;48.084;17.272;2023-06-04T10:05:22;100759.25;;;16.98
62611;BMP280;48683;48.084;17.272;2023-06-04T10:07:50;100769.56;;;17.07
62611;BMP280;48683;48.084;17.272;2023-06-04T10:10:19;100774.69;;;17.01
62611;BMP280;48683;48.084;17.272;2023-06-04T10:12:50;100771.59;;;17.03
62611;BMP280;48683;48.084;17.272;2023-06-04T10:15:17;100768.38;;;17.08
62611;BMP280;48683;48.084;17.272;2023-06-04T10:17:42;100766.25;;;17.19
62611;BMP280;48683;48.084;17.272;2023-06-04T10:20:08;100763.41;;;17.26
62611;BMP280;48683;48.084;17.272;2023-06-04T10:22:35;100764.03;;;17.34
62611;BMP280;48683;48.084;17.272;2023-06-04T10:25:00;100771.63;;;17.42
62611;BMP280;48683;48.084;17.272;2023-06-04T10:27:26;100770.94;;;17.58
62611;BMP280;48683;48.084;17.272;2023-06-04T10:29:51;100762.91;;;17.71
62611;BMP280;48683;48.084;17.272;2023-06-04T10:32:18;100766.06;;;17.69
62611;BMP280;48683;48.084;17.272;2023-06-04T10:34:44;100764.69;;;17.61
62611;BMP280;48683;48.084;17.272;2023-06-04T10:37:28;100761.16;;;17.41
62611;BMP280;48683;48.084;17.272;2023-06-04T10:39:56;100757.34;;;17.38
62611;BMP280;48683;48.084;17.272;2023-06-04T10:42:22;100764.44;;;17.32
62611;BMP280;48683;48.084;17.272;2023-06-04T10:44:50;100763.19;;;17.17
62611;BMP280;48683;48.084;17.272;2023-06-04T10:47:26;100761.38;;;17.11
62611;BMP280;48683;48.084;17.272;2023-06-04T10:49:54;100763.44;;;17.03
62611;BMP280;48683;48.084;17.272;2023-06-04T10:52:20;100761.22;;;16.98
62611;BMP280;48683;48.084;17.272;2023-06-04T10:54:46;100768.94;;;16.99
62611;BMP280;48683;48.084;17.272;2023-06-04T10:57:15;100768.94;;;16.99
62611;BMP280;48683;48.084;17.272;2023-06-04T10:59:41;100757.53;;;16.88
62611;BMP280;48683;48.084;17.272;2023-06-04T11:02:09;100771.28;;;16.97
62611;BMP280;48683;48.084;17.272;2023-06-04T11:04:35;100762.81;;;16.95
62611;BMP280;48683;48.084;17.272;2023-06-04T11:07:06;100751.97;;;16.95
62611;BMP280;48683;48.084;17.272;2023-06-04T11:09:47;100769.03;;;17.16
62611;BMP280;48683;48.084;17.272;2023-06-04T11:12:12;100779.88;;;17.35
62611;BMP280;48683;48.084;17.272;2023-06-04T11:14:38;100768.34;;;17.31
62611;BMP280;48683;48.084;17.272;2023-06-04T11:17:10;100763.41;;;17.26
62611;BMP280;48683;48.084;17.272;2023-06-04T11:19:37;100768.06;;;17.26
62611;BMP280;48683;48.084;17.272;2023-06-04T11:22:03;100769.16;;;17.28
62611;BMP280;48683;48.084;17.272;2023-06-04T11:24:29;100770.38;;;17.27
62611;BMP280;48683;48.084;17.272;2023-06-04T11:26:56;100778.38;;;17.34
62611;BMP280;48683;48.084;17.272;2023-06-04T11:29:24;100765.81;;;17.21
62611;BMP280;48683;48.084;17.272;2023-06-04T11:31:50;100771.47;;;17.30
62611;BMP280;48683;48.084;17.272;2023-06-04T11:34:25;100782.31;;;17.30
62611;BMP280;48683;48.084;17.272;2023-06-04T11:36:51;100778.50;;;17.27
62611;BMP280;48683;48.084;17.272;2023-06-04T11:39:19;100773.09;;;17.27
62611;BMP280;48683;48.084;17.272;2023-06-04T11:41:44;100778.22;;;17.22
62611;BMP280;48683;48.084;17.272;2023-06-04T11:44:11;100771.25;;;17.21
62611;BMP280;48683;48.084;17.272;2023-06-04T11:46:40;100763.09;;;17.21
62611;BMP280;48683;48.084;17.272;2023-06-04T11:49:06;100764.97;;;17.24
62611;BMP280;48683;48.084;17.272;2023-06-04T11:51:32;100778.84;;;17.29
62611;BMP280;48683;48.084;17.272;2023-06-04T11:53:58;100770.28;;;17.31
62611;BMP280;48683;48.084;17.272;2023-06-04T11:56:24;100773.72;;;17.35
62611;BMP280;48683;48.084;17.272;2023-06-04T11:58:51;100774.66;;;17.44
62611;BMP280;48683;48.084;17.272;2023-06-04T12:01:18;100776.38;;;17.58
62611;BMP280;48683;48.084;17.272;2023-06-04T12:03:44;100776.75;;;17.56
62611;BMP280;48683;48.084;17.272;2023-06-04T12:06:13;100783.31;;;17.59
62611;BMP280;48683;48.084;17.272;2023-06-04T12:08:48;100775.88;;;17.63
62611;BMP280;48683;48.084;17.272;2023-06-04T12:11:28;100762.97;;;17.47
62611;BMP280;48683;48.084;17.272;2023-06-04T12:13:58;100777.16;;;17.55
62611;BMP280;48683;48.084;17.272;2023-06-04T12:16:24;100783.75;;;17.58
62611;BMP280;48683;48.084;17.272;2023-06-04T12:18:50;100781.72;;;17.62
62611;BMP280;48683;48.084;17.272;2023-06-04T12:21:23;100776.06;;;17.52
62611;BMP280;48683;48.084;17.272;2023-06-04T12:23:53;100784.91;;;17.56
62611;BMP280;48683;48.084;17.272;2023-06-04T12:26:23;100775.59;;;17.58
62611;BMP280;48683;48.084;17.272;2023-06-04T12:29:07;100776.56;;;17.67
62611;BMP280;48683;48.084;17.272;2023-06-04T12:31:32;100775.72;;;17.50
62611;BMP280;48683;48.084;17.272;2023-06-04T12:34:00;100773.66;;;17.58
62611;BMP280;48683;48.084;17.272;2023-06-04T12:36:25;100773.59;;;17.62
62611;BMP280;48683;48.084;17.272;2023-06-04T12:38:51;100773.91;;;17.64
62611;BMP280;48683;48.084;17.272;2023-06-04T12:41:16;100774.69;;;17.64
62611;BMP280;48683;48.084;17.272;2023-06-04T12:43:41;100770.72;;;17.69
62611;BMP280;48683;48.084;17.272;2023-06-04T12:46:07;100770.66;;;17.72
62611;BMP280;48683;48.084;17.272;2023-06-04T12:48:32;100766.06;;;17.69
62611;BMP280;48683;48.084;17.272;2023-06-04T12:50:58;100759.56;;;17.63
62611;BMP280;48683;48.084;17.272;2023-06-04T12:53:23;100772.66;;;17.68
62611;BMP280;48683;48.084;17.272;2023-06-04T12:55:49;100763.75;;;17.68
62611;BMP280;48683;48.084;17.272;2023-06-04T12:58:15;100773.16;;;17.63
62611;BMP280;48683;48.084;17.272;2023-06-04T13:00:40;100779.34;;;17.64
62611;BMP280;48683;48.084;17.272;2023-06-04T13:03:06;100779.72;;;17.66
62611;BMP280;48683;48.084;17.272;2023-06-04T13:05:31;100778.31;;;17.58
62611;BMP280;48683;48.084;17.272;2023-06-04T13:07:56;100772.94;;;17.54
62611;BMP280;48683;48.084;17.272;2023-06-04T13:10:22;100775.50;;;17.41
62611;BMP280;48683;48.084;17.272;2023-06-04T13:12:47;100764.44;;;17.32
62611;BMP280;48683;48.084;17.272;2023-06-04T13:15:12;100767.84;;;17.17
62611;BMP280;48683;48.084;17.272;2023-06-04T13:17:37;100774.94;;;17.11
62611;BMP280;48683;48.084;17.272;2023-06-04T13:20:03;100774.94;;;17.11
62611;BMP280;48683;48.084;17.272;2023-06-04T13:22:29;100784.53;;;17.15
62611;BMP280;48683;48.084;17.272;2023-06-04T13:24:54;100764.78;;;17.15
62611;BMP280;48683;48.084;17.272;2023-06-04T13:27:20;100784.41;;;17.22
62611;BMP280;48683;48.084;17.272;2023-06-04T13:29:45;100770.06;;;17.22
62611;BMP280;48683;48.084;17.272;2023-06-04T13:32:10;100781.97;;;17.28
62611;BMP280;48683;48.084;17.272;2023-06-04T13:34:36;100786.28;;;17.25
62611;BMP280;48683;48.084;17.272;2023-06-04T13:37:01;100791.63;;;17.29
62611;BMP280;48683;48.084;17.272;2023-06-04T13:39:26;100785.66;;;17.37
62611;BMP280;48683;48.084;17.272;2023-06-04T13:41:52;100789.00;;;17.25
62611;BMP280;48683;48.084;17.272;2023-06-04T13:44:17;100781.69;;;17.22
62611;BMP280;48683;48.084;17.272;2023-06-04T13:46:42;100793.84;;;17.14
62611;BMP280;48683;48.084;17.272;2023-06-04T13:49:07;100769.34;;;16.98
62611;BMP280;48683;48.084;17.272;2023-06-04T13:51:33;100778.59;;;17.00